Maple Grove, Kentucky
Current Conditions -  °F | °C
As of 6:58 PM on Tuesday 27 Jan 2015 (Local Time) from KHOP Reporting Station
Overcast Overcast  
Wind Chill: 29°   Ceiling: 3600
Heat Index: 36°   Visibility: 10mi
Dew Point: 29°   Wind: 9mph
Humidity: 75%   Direction: 360°N
Pressure: 30.21"   Gusts: NA
Location:  36.8031°N, 87.8159°W
Report Text: KHOP 280058Z AUTO 36008KT 10SM OVC036 02/M02 A3021 RMK AO2 SLP236 T00221018
Loading
Personal Weather Stations






























Interactive Weather Map New forecast layout! Learn more

10-Day Weather Forecast

Advertisements
Track Severe Weather on mobile